Time;durP1;ratioP1;P1;durP2;ratioP2;P2;SDS_P1;SDS_P2;PMS_P1;PMS_P2;Temp;Humidity;BMP_temperature;BMP_pressure;BME280_temperature;BME280_humidity;BME280_pressure;Samples;Min_cycle;Max_cycle;Signal;HPM_P1;HPM_P2
2022/01/22 00:00:19;;;;;;;;;11.50;11.00;;;;;8.02;58.38;103204.59;5039270;28;45198;-58
2022/01/22 00:02:45;;;;;;;;;13.00;10.50;;;;;8.00;58.60;103206.28;5039532;28;45584;-58
2022/01/22 00:05:12;;;;;;;;;12.00;10.25;;;;;8.04;58.51;103215.13;5039304;28;45502;-59
2022/01/22 00:07:38;;;;;;;;;11.00;11.00;;;;;8.04;58.42;103213.41;5047808;28;47147;-58
2022/01/22 00:10:12;;;;;;;;;12.50;12.00;;;;;8.06;58.53;103208.22;5059277;28;45347;-58
2022/01/22 00:15:12;;;;;;;;;10.50;10.25;;;;;8.09;58.67;103206.59;5059297;28;45673;-59
2022/01/22 00:17:38;;;;;;;;;11.50;10.00;;;;;8.11;58.49;103198.78;5059500;28;46371;-58
2022/01/22 00:20:05;;;;;;;;;11.75;11.75;;;;;8.11;58.44;103201.41;5058972;28;45249;-59
2022/01/22 00:22:33;;;;;;;;;10.00;9.75;;;;;8.13;58.50;103203.25;5059565;28;45448;-59
2022/01/22 00:25:00;;;;;;;;;13.50;10.75;;;;;8.14;58.45;103204.16;5057902;28;45450;-58
2022/01/22 00:27:28;;;;;;;;;12.25;9.25;;;;;8.17;58.56;103195.50;5059388;28;47427;-58
2022/01/22 00:29:54;;;;;;;;;11.00;11.00;;;;;8.18;58.38;103197.28;5059158;28;45570;-58
2022/01/22 00:32:20;;;;;;;;;10.25;9.75;;;;;8.17;58.33;103198.13;5059294;28;45442;-59
2022/01/22 00:34:45;;;;;;;;;10.00;7.25;;;;;8.18;58.44;103194.66;5058008;28;45236;-58
2022/01/22 00:37:11;;;;;;;;;12.50;10.00;;;;;8.19;58.35;103202.56;5074984;28;47053;-58
2022/01/22 00:39:37;;;;;;;;;10.75;10.75;;;;;8.20;58.60;103198.22;5059274;28;45146;-59
2022/01/22 00:42:08;;;;;;;;;9.75;8.50;;;;;8.20;58.25;103193.88;5046945;28;45395;-59
2022/01/22 00:44:34;;;;;;;;;8.00;7.75;;;;;8.22;58.21;103188.69;5041932;28;45469;-58
2022/01/22 00:47:00;;;;;;;;;9.50;9.00;;;;;8.23;58.42;103190.47;5053934;28;46818;-59
2022/01/22 00:49:26;;;;;;;;;15.25;9.75;;;;;8.25;58.46;103194.03;5055515;28;45604;-58
2022/01/22 00:51:52;;;;;;;;;9.75;7.25;;;;;8.26;58.34;103185.34;5039113;28;45207;-58
2022/01/22 00:54:17;;;;;;;;;9.00;7.75;;;;;8.27;58.34;103193.22;5048657;28;45494;-59
2022/01/22 00:56:42;;;;;;;;;11.00;11.00;;;;;8.27;58.42;103185.38;5040255;28;46181;-58
2022/01/22 00:59:08;;;;;;;;;14.25;11.25;;;;;8.32;58.33;103193.41;5038598;28;45382;-59
2022/01/22 01:01:33;;;;;;;;;10.75;9.75;;;;;8.30;58.15;103189.81;5042160;28;45387;-59
2022/01/22 01:04:01;;;;;;;;;9.25;9.00;;;;;8.33;58.29;103178.56;5040883;28;45245;-59
2022/01/22 01:06:27;;;;;;;;;10.00;10.00;;;;;8.33;58.45;103186.41;5041903;28;47139;-59
2022/01/22 01:08:52;;;;;;;;;11.00;10.00;;;;;8.34;58.22;103185.59;5041774;28;45510;-58
2022/01/22 01:11:18;;;;;;;;;11.00;11.00;;;;;8.34;58.26;103180.34;5042060;28;45354;-58
2022/01/22 01:13:47;;;;;;;;;12.75;12.00;;;;;8.34;58.22;103181.25;5041756;28;45211;-58
2022/01/22 01:16:20;;;;;;;;;12.50;10.75;;;;;8.32;58.19;103175.06;5041913;28;46484;-58
2022/01/22 01:32:42;;;;;;;;;11.50;10.00;;;;;8.38;58.23;103172.66;5041879;28;45391;-59
2022/01/22 01:35:09;;;;;;;;;11.50;10.25;;;;;8.38;58.05;103171.78;5041675;28;45368;-59
2022/01/22 01:37:34;;;;;;;;;9.00;7.25;;;;;8.37;58.10;103170.00;5041712;28;46256;-58
2022/01/22 01:40:04;;;;;;;;;9.00;8.00;;;;;8.40;58.29;103177.94;5056842;28;45519;-59
2022/01/22 01:45:13;;;;;;;;;11.50;8.00;;;;;8.40;58.09;103164.84;5041977;28;45247;-59
2022/01/22 01:47:41;;;;;;;;;9.50;8.75;;;;;8.39;58.10;103169.19;5055332;28;46271;-59
2022/01/22 01:50:08;;;;;;;;;10.25;10.25;;;;;8.40;58.20;103167.47;5056431;28;45303;-59
2022/01/22 01:55:35;;;;;;;;;11.00;8.75;;;;;8.41;58.16;103175.38;5027979;28;45286;-59
2022/01/22 01:58:00;;;;;;;;;9.00;8.00;;;;;8.41;58.47;103175.38;5041364;28;46227;-59
2022/01/22 02:00:26;;;;;;;;;8.25;6.00;;;;;8.42;58.15;103168.41;5041062;28;45422;-59
2022/01/22 02:02:52;;;;;;;;;8.50;8.50;;;;;8.41;58.08;103172.75;5041658;28;45410;-59
2022/01/22 02:05:21;;;;;;;;;6.75;6.75;;;;;8.42;58.12;103179.78;5041314;28;45269;-59
2022/01/22 02:07:48;;;;;;;;;8.50;8.50;;;;;8.41;58.23;103183.22;5041108;28;46150;-63
2022/01/22 02:10:22;;;;;;;;;8.75;6.00;;;;;8.42;58.01;103181.50;5040916;28;45256;-59
2022/01/22 02:26:04;;;;;;;;;8.75;8.75;;;;;8.43;57.92;103165.84;5040818;28;45214;-59
2022/01/22 02:28:30;;;;;;;;;7.50;7.50;;;;;8.42;58.24;103157.94;5056405;28;46865;-59
2022/01/22 02:31:04;;;;;;;;;11.50;9.00;;;;;8.50;57.98;103166.06;5040355;28;45277;-59
2022/01/22 02:33:43;;;;;;;;;10.00;9.00;;;;;8.51;58.12;103160.00;5041075;28;45309;-59
2022/01/22 02:36:34;;;;;;;;;9.25;6.50;;;;;8.53;58.12;103155.69;5056366;28;45900;-59
2022/01/22 02:39:03;;;;;;;;;3.25;3.00;;;;;8.52;58.17;103154.81;5040134;28;46498;-59
2022/01/22 02:41:29;;;;;;;;;9.50;5.00;;;;;8.52;58.33;103157.44;5056234;28;45391;-59
2022/01/22 02:43:55;;;;;;;;;12.00;10.00;;;;;8.46;58.18;103144.13;5040852;28;45647;-59
2022/01/22 02:46:24;;;;;;;;;11.00;9.75;;;;;8.55;58.14;103156.63;5057987;28;45462;-59
2022/01/22 02:48:54;;;;;;;;;9.75;7.75;;;;;8.54;58.20;103150.50;5048321;28;47028;-59
2022/01/22 02:51:21;;;;;;;;;11.25;7.25;;;;;8.53;58.41;103143.50;5060678;28;45385;-59
2022/01/22 02:53:49;;;;;;;;;11.25;8.75;;;;;8.53;58.02;103150.44;5060509;28;45382;-59
2022/01/22 02:56:15;;;;;;;;;10.00;8.00;;;;;8.51;58.08;103145.16;5060778;28;45284;-59
2022/01/22 02:58:40;;;;;;;;;7.50;7.00;;;;;8.51;58.21;103144.28;5060443;28;45197;-59
2022/01/22 03:01:06;;;;;;;;;11.25;9.00;;;;;8.52;58.23;103139.06;5060472;28;45403;-59
2022/01/22 03:03:31;;;;;;;;;8.25;7.00;;;;;8.52;58.21;103140.81;5060596;28;45479;-59
2022/01/22 03:05:56;;;;;;;;;10.50;7.75;;;;;8.53;57.79;103147.81;5059269;28;45556;-59
2022/01/22 03:08:27;;;;;;;;;9.75;7.50;;;;;8.51;58.31;103142.53;5075962;28;46297;-59
2022/01/22 03:10:53;;;;;;;;;9.75;6.25;;;;;8.51;58.15;103137.28;5060265;28;45380;-59
2022/01/22 03:16:26;;;;;;;;;9.00;7.25;;;;;8.51;58.03;103139.91;5060146;28;45273;-59
2022/01/22 03:19:09;;;;;;;;;8.25;8.25;;;;;8.53;58.07;103137.34;5060024;28;46037;-59
2022/01/22 03:21:41;;;;;;;;;12.50;10.25;;;;;8.53;57.94;103151.34;5059877;28;45213;-59
2022/01/22 03:29:40;;;;;;;;;10.25;8.25;;;;;8.55;58.00;103149.69;5059807;28;45380;-59
2022/01/22 03:32:07;;;;;;;;;8.50;8.50;;;;;8.55;58.09;103144.44;5059214;28;45325;-59
2022/01/22 03:34:40;;;;;;;;;10.25;10.00;;;;;8.54;57.99;103146.97;5059586;28;45366;-59
2022/01/22 03:37:05;;;;;;;;;15.00;11.00;;;;;8.52;58.13;103138.19;5060069;28;45233;-59
2022/01/22 03:39:31;;;;;;;;;10.50;10.50;;;;;8.56;58.04;103150.56;5059878;28;45268;-59
2022/01/22 03:41:56;;;;;;;;;11.75;11.75;;;;;8.55;58.14;103161.88;5060055;28;45212;-58
2022/01/22 03:44:22;;;;;;;;;10.75;9.50;;;;;8.53;58.26;103158.31;5059593;28;45727;-60
2022/01/22 03:46:47;;;;;;;;;10.00;8.75;;;;;8.55;58.24;103169.72;5058917;28;45541;-64
2022/01/22 03:49:15;;;;;;;;;12.00;12.00;;;;;8.55;58.13;103168.03;5047616;28;46100;-59
2022/01/22 03:51:41;;;;;;;;;10.75;10.75;;;;;8.56;58.13;103161.03;5059935;28;45336;-59
2022/01/22 03:54:06;;;;;;;;;12.00;11.25;;;;;8.54;57.99;103162.72;5059832;28;45497;-59
2022/01/22 03:56:32;;;;;;;;;12.25;11.00;;;;;8.56;58.15;103168.91;5059879;28;45482;-59
2022/01/22 03:58:57;;;;;;;;;12.50;12.00;;;;;8.54;58.31;103157.47;5059582;28;45474;-59
2022/01/22 04:04:03;;;;;;;;;10.00;10.00;;;;;8.54;58.06;103158.38;5058589;28;45324;-59
2022/01/22 04:09:06;;;;;;;;;10.00;6.00;;;;;8.54;58.21;103154.84;5059308;28;46148;-59
2022/01/22 04:11:36;;;;;;;;;10.00;9.25;;;;;8.50;58.22;103148.59;5059422;28;45457;-59
2022/01/22 04:14:04;;;;;;;;;12.50;11.00;;;;;8.53;58.25;103145.19;5059615;28;45162;-59
2022/01/22 04:16:30;;;;;;;;;10.75;9.75;;;;;8.53;58.14;103147.81;5059298;28;45269;-59
2022/01/22 04:27:15;;;;;;;;;15.00;9.50;;;;;8.51;58.22;103144.28;5059701;28;45500;-59
2022/01/22 04:29:41;;;;;;;;;13.00;13.00;;;;;8.51;58.31;103141.66;5058943;28;46776;-59
2022/01/22 04:32:07;;;;;;;;;13.00;11.00;;;;;8.51;58.15;103141.66;5059252;28;45429;-59
2022/01/22 04:34:33;;;;;;;;;12.25;10.75;;;;;8.51;58.20;103134.66;5058808;28;45541;-59
2022/01/22 04:36:58;;;;;;;;;16.75;12.00;;;;;8.50;58.17;103146.00;5062730;28;45471;-59
2022/01/22 04:39:26;;;;;;;;;10.25;9.00;;;;;8.51;58.30;103144.28;5062441;28;45426;-59
2022/01/22 04:41:54;;;;;;;;;13.50;13.00;;;;;8.49;58.10;103139.00;5062838;28;45366;-59
2022/01/22 04:44:19;;;;;;;;;11.50;10.50;;;;;8.51;58.15;103139.03;5078219;28;45519;-59
2022/01/22 04:55:00;;;;;;;;;18.25;16.25;;;;;8.49;58.24;103143.31;5062371;28;45300;-59
2022/01/22 04:57:28;;;;;;;;;16.25;14.25;;;;;8.50;58.35;103143.38;5062263;28;45385;-59
2022/01/22 04:59:53;;;;;;;;;17.50;15.00;;;;;8.49;58.25;103136.38;5061834;28;46544;-59
2022/01/22 05:02:19;;;;;;;;;14.00;12.75;;;;;8.50;58.06;103142.50;5062378;28;45412;-60
2022/01/22 05:04:44;;;;;;;;;14.50;13.50;;;;;8.50;58.22;103145.13;5062633;28;45316;-59
2022/01/22 05:07:10;;;;;;;;;19.00;13.50;;;;;8.47;58.39;103147.66;5062390;28;45357;-60
2022/01/22 05:09:35;;;;;;;;;14.25;14.25;;;;;8.44;58.33;103141.41;5062230;28;45363;-59
2022/01/22 05:12:01;;;;;;;;;17.25;16.00;;;;;8.48;58.29;103149.41;5061991;28;45391;-59
2022/01/22 05:14:27;;;;;;;;;21.75;18.75;;;;;8.46;58.39;103146.75;5078083;28;45474;-59
2022/01/22 05:16:54;;;;;;;;;17.25;13.50;;;;;8.47;58.30;103148.53;5062080;28;45549;-59
2022/01/22 05:19:34;;;;;;;;;17.25;16.50;;;;;8.44;58.09;103143.16;5061851;28;46310;-60
2022/01/22 05:22:08;;;;;;;;;20.50;19.75;;;;;8.45;58.16;103152.78;5062077;28;45395;-59
2022/01/22 05:24:38;;;;;;;;;18.75;16.50;;;;;8.45;58.56;103161.53;5061838;28;45398;-59
2022/01/22 05:37:25;;;;;;;;;25.25;23.50;;;;;8.41;58.43;103159.63;5061812;28;45161;-59
2022/01/22 05:39:50;;;;;;;;;27.25;24.50;;;;;8.41;58.37;103159.63;5061648;28;47396;-59
2022/01/22 05:42:16;;;;;;;;;26.75;23.50;;;;;8.40;58.19;103151.72;5077420;28;45235;-59
2022/01/22 05:44:41;;;;;;;;;23.75;20.75;;;;;8.33;58.65;103150.66;5061969;28;45228;-59
2022/01/22 05:47:07;;;;;;;;;20.75;20.75;;;;;8.41;58.27;103159.63;5058037;28;45145;-59
2022/01/22 05:49:37;;;;;;;;;21.50;19.75;;;;;8.41;58.30;103169.25;5051723;28;45519;-59
2022/01/22 05:52:05;;;;;;;;;25.75;22.50;;;;;8.41;58.46;103172.75;5060398;28;45326;-59
2022/01/22 05:59:58;;;;;;;;;26.50;24.50;;;;;8.38;58.30;103164.78;5061196;28;45426;-59
2022/01/22 06:02:23;;;;;;;;;30.50;26.00;;;;;8.41;58.32;103170.13;5061504;28;45240;-59
2022/01/22 06:04:49;;;;;;;;;37.00;25.00;;;;;8.42;58.16;103181.50;5061624;28;45176;-59
2022/01/22 06:07:14;;;;;;;;;25.50;20.00;;;;;8.42;58.35;103185.00;5061588;28;45485;-59
2022/01/22 06:09:53;;;;;;;;;34.00;27.75;;;;;8.42;58.27;103178.91;5061015;28;45429;-59
2022/01/22 06:12:33;;;;;;;;;31.25;23.25;;;;;8.40;58.12;103183.19;5061481;28;45307;-59
2022/01/22 06:14:59;;;;;;;;;30.00;26.50;;;;;8.39;58.54;103178.78;5061202;28;45339;-59
2022/01/22 06:17:24;;;;;;;;;30.00;24.75;;;;;8.36;58.33;103178.69;5061465;28;45199;-59
2022/01/22 06:19:49;;;;;;;;;32.50;26.00;;;;;8.35;58.26;103175.19;5060792;28;45208;-59
2022/01/22 06:22:15;;;;;;;;;27.50;26.75;;;;;8.34;58.43;103176.03;5061376;28;45306;-59
2022/01/22 06:24:40;;;;;;;;;35.75;26.25;;;;;8.36;58.51;103171.69;5061089;28;45572;-59
2022/01/22 06:27:06;;;;;;;;;31.00;25.50;;;;;8.37;58.29;103176.09;5061379;28;45253;-59
2022/01/22 06:29:31;;;;;;;;;29.00;24.75;;;;;8.36;58.55;103176.06;5060715;28;46088;-59
2022/01/22 06:31:56;;;;;;;;;30.00;26.00;;;;;8.38;58.32;103184.88;5060971;28;45231;-59
2022/01/22 06:34:22;;;;;;;;;27.50;22.50;;;;;8.37;58.54;103173.50;5076711;28;45169;-59
2022/01/22 06:36:47;;;;;;;;;42.00;35.00;;;;;8.36;58.20;103169.09;5061019;28;45571;-59
2022/01/22 06:39:17;;;;;;;;;30.75;28.50;;;;;8.37;58.38;103172.59;5060709;28;45388;-59
2022/01/22 06:41:46;;;;;;;;;28.00;25.25;;;;;8.38;58.41;103175.28;5060246;28;45260;-59
2022/01/22 06:44:14;;;;;;;;;43.50;36.25;;;;;8.39;58.37;103170.91;5060671;28;45287;-59
2022/01/22 06:46:41;;;;;;;;;27.50;23.25;;;;;8.39;58.45;103166.59;5052248;28;45342;-58
2022/01/22 06:49:06;;;;;;;;;33.50;29.25;;;;;8.38;58.17;103170.03;5048395;28;46016;-58
2022/01/22 06:51:33;;;;;;;;;32.75;26.75;;;;;8.37;58.49;103173.50;5060751;28;45323;-59
2022/01/22 06:53:59;;;;;;;;;36.50;30.75;;;;;8.37;58.51;103183.97;5060266;28;45391;-59
2022/01/22 06:56:25;;;;;;;;;34.25;28.00;;;;;8.38;58.41;103191.00;5061027;28;45534;-59
2022/01/22 06:58:51;;;;;;;;;30.50;26.75;;;;;8.37;58.48;103193.56;5059973;28;45783;-60
2022/01/22 07:01:16;;;;;;;;;30.50;23.25;;;;;8.35;58.22;103185.66;5058942;28;45333;-59
2022/01/22 07:03:42;;;;;;;;;32.75;29.00;;;;;8.37;58.67;103191.81;5060319;28;45224;-58
2022/01/22 07:06:07;;;;;;;;;31.25;27.75;;;;;8.38;58.52;103203.22;5060245;28;45269;-59
2022/01/22 07:08:33;;;;;;;;;36.00;31.25;;;;;8.39;58.40;103195.41;5059787;28;45522;-58
2022/01/22 07:10:58;;;;;;;;;38.00;30.00;;;;;8.41;58.61;103195.44;5075772;28;45361;-60
2022/01/22 07:13:23;;;;;;;;;31.50;25.75;;;;;8.41;58.30;103196.31;5060570;28;45394;-60
2022/01/22 07:15:49;;;;;;;;;28.00;24.75;;;;;8.41;58.53;103196.31;5060214;28;45444;-60
2022/01/22 07:18:14;;;;;;;;;27.25;25.75;;;;;8.42;58.63;103189.38;5059950;28;46274;-62
2022/01/22 07:20:42;;;;;;;;;26.75;22.75;;;;;8.42;58.41;103198.13;5059763;28;45538;-62
2022/01/22 07:25:52;;;;;;;;;31.00;28.50;;;;;8.42;58.38;103194.63;5059980;28;45331;-62
2022/01/22 07:28:17;;;;;;;;;30.00;27.00;;;;;8.41;58.47;103198.94;5060394;28;45362;-61
2022/01/22 07:30:46;;;;;;;;;33.25;30.75;;;;;8.42;58.56;103205.09;5058981;28;45253;-62
2022/01/22 07:33:12;;;;;;;;;34.50;26.00;;;;;8.41;58.84;103203.31;5057577;28;45450;-62
2022/01/22 07:35:38;;;;;;;;;29.50;26.75;;;;;8.44;58.59;103206.06;5075300;28;45493;-62
2022/01/22 07:38:03;;;;;;;;;35.00;26.50;;;;;8.44;58.66;103203.44;5059928;28;45291;-62
2022/01/22 07:40:29;;;;;;;;;42.50;33.25;;;;;8.44;58.63;103201.69;5059468;28;45344;-62
2022/01/22 07:42:55;;;;;;;;;35.50;30.75;;;;;8.45;58.50;103199.94;5060146;28;45327;-61
2022/01/22 07:45:21;;;;;;;;;29.25;26.50;;;;;8.46;58.41;103209.63;5059598;28;45335;-62
2022/01/22 07:47:46;;;;;;;;;32.75;28.25;;;;;8.47;58.85;103207.91;5052228;28;46606;-62
2022/01/22 07:50:12;;;;;;;;;24.25;22.75;;;;;8.47;58.63;103215.78;5055099;28;45379;-62
2022/01/22 07:52:37;;;;;;;;;34.50;30.75;;;;;8.44;58.61;103206.94;5060179;28;45359;-62
2022/01/22 07:55:03;;;;;;;;;36.25;30.75;;;;;8.47;58.56;103210.53;5058357;28;46394;-62
2022/01/22 07:57:29;;;;;;;;;28.75;28.25;;;;;8.47;58.47;103221.03;5075493;28;47229;-62
2022/01/22 07:59:54;;;;;;;;;32.25;28.00;;;;;8.45;58.61;103224.44;5059360;28;45476;-62
2022/01/22 08:02:20;;;;;;;;;36.75;33.25;;;;;8.48;58.46;103222.78;5059861;28;45296;-62
2022/01/22 08:04:45;;;;;;;;;28.50;26.00;;;;;8.47;58.55;103223.66;5059646;28;45462;-62
2022/01/22 08:07:11;;;;;;;;;34.50;28.00;;;;;8.48;58.77;103228.94;5059673;28;46200;-61
2022/01/22 08:09:36;;;;;;;;;32.75;29.25;;;;;8.49;58.61;103235.97;5059928;28;45364;-61
2022/01/22 08:12:02;;;;;;;;;35.75;32.00;;;;;8.49;58.58;103229.81;5063547;28;45277;-62
2022/01/22 08:14:27;;;;;;;;;34.50;31.50;;;;;8.48;58.63;103228.94;5061742;28;45202;-62
2022/01/22 08:16:53;;;;;;;;;35.00;31.25;;;;;8.48;58.66;103230.63;5061400;28;46158;-62
2022/01/22 08:19:19;;;;;;;;;38.25;32.25;;;;;8.47;58.69;103242.00;5062938;28;45401;-62
2022/01/22 08:21:46;;;;;;;;;32.00;30.00;;;;;8.49;58.67;103235.97;5063195;28;45379;-62
2022/01/22 08:24:13;;;;;;;;;33.50;27.00;;;;;8.49;58.84;103237.66;5062714;28;45365;-62
2022/01/22 08:26:45;;;;;;;;;39.75;34.50;;;;;8.45;58.50;103227.06;5062860;28;47182;-61
2022/01/22 08:29:11;;;;;;;;;35.75;33.50;;;;;8.50;58.67;103234.22;5062729;28;45522;-62
2022/01/22 08:36:47;;;;;;;;;34.00;33.00;;;;;8.50;58.67;103249.94;5062808;28;45663;-61
2022/01/22 08:39:15;;;;;;;;;36.00;33.50;;;;;8.51;58.86;103249.09;5062618;28;45319;-62
2022/01/22 08:41:41;;;;;;;;;36.75;31.75;;;;;8.51;58.68;103249.97;5062866;28;45306;-61
2022/01/22 08:44:07;;;;;;;;;43.75;33.50;;;;;8.52;58.62;103237.78;5062716;28;45592;-61
2022/01/22 08:46:36;;;;;;;;;36.50;33.00;;;;;8.52;58.75;103249.16;5061854;28;46433;-61
2022/01/22 08:49:04;;;;;;;;;34.50;30.25;;;;;8.53;58.87;103253.56;5050376;28;45273;-61
2022/01/22 08:51:32;;;;;;;;;32.00;30.50;;;;;8.54;58.69;103252.72;5062552;28;45212;-61
2022/01/22 08:54:00;;;;;;;;;54.00;42.00;;;;;8.55;58.53;103262.38;5062165;28;45446;-61
2022/01/22 08:56:26;;;;;;;;;45.00;35.75;;;;;8.49;58.74;103256.00;5062558;28;46973;-61
2022/01/22 08:58:52;;;;;;;;;41.75;35.50;;;;;8.58;58.79;103265.09;5062291;28;45337;-61
2022/01/22 09:01:17;;;;;;;;;40.50;34.25;;;;;8.57;58.74;103260.69;5062260;28;45276;-61
2022/01/22 09:03:43;;;;;;;;;35.00;27.75;;;;;8.58;58.73;103259.84;5062271;28;45244;-61
2022/01/22 09:06:11;;;;;;;;;39.25;31.75;;;;;8.61;58.59;103265.19;5062159;28;46080;-61
2022/01/22 09:08:36;;;;;;;;;45.25;37.00;;;;;8.61;58.51;103267.81;5062190;28;45362;-61
2022/01/22 09:11:02;;;;;;;;;40.75;36.75;;;;;8.64;58.73;103268.75;5061872;28;45309;-61
2022/01/22 09:13:29;;;;;;;;;39.25;35.25;;;;;8.66;58.67;103270.59;5060813;28;45257;-61
2022/01/22 09:15:55;;;;;;;;;34.00;31.25;;;;;8.67;58.74;103269.75;5061833;28;45558;-61
2022/01/22 09:18:21;;;;;;;;;40.75;33.00;;;;;8.69;58.53;103272.44;5061922;28;45319;-61
2022/01/22 09:23:16;;;;;;;;;40.75;35.25;;;;;8.70;58.72;103267.22;5062055;28;45265;-61
2022/01/22 09:25:42;;;;;;;;;40.00;34.00;;;;;8.72;58.61;103275.16;5061884;28;47542;-61
2022/01/22 09:28:11;;;;;;;;;43.75;37.00;;;;;8.74;58.66;103274.38;5062053;28;45324;-61
2022/01/22 09:30:36;;;;;;;;;41.50;35.00;;;;;8.73;58.67;103271.69;5061898;28;45318;-61
2022/01/22 09:33:02;;;;;;;;;46.75;38.00;;;;;8.78;58.76;103278.00;5061959;28;45617;-61
2022/01/22 09:35:28;;;;;;;;;44.25;36.25;;;;;8.78;58.73;103278.88;5061857;28;46286;-61
2022/01/22 09:37:53;;;;;;;;;42.25;33.75;;;;;8.80;58.64;103286.78;5061849;28;45225;-61
2022/01/22 09:40:19;;;;;;;;;38.25;35.00;;;;;8.80;58.65;103278.94;5061884;28;45490;-61
2022/01/22 09:42:44;;;;;;;;;37.25;28.75;;;;;8.83;58.69;103284.28;5061724;28;45201;-61
2022/01/22 09:45:12;;;;;;;;;40.00;34.00;;;;;8.84;58.61;103285.16;5076899;28;46388;-61
2022/01/22 09:47:42;;;;;;;;;37.50;32.75;;;;;8.88;58.69;103284.41;5055217;28;45371;-61
2022/01/22 09:50:07;;;;;;;;;40.00;33.00;;;;;8.91;58.34;103289.78;5056457;28;45378;-61
2022/01/22 09:52:34;;;;;;;;;44.25;36.25;;;;;8.92;58.58;103286.31;5061836;28;45513;-61
2022/01/22 09:54:59;;;;;;;;;35.50;33.75;;;;;8.90;58.59;103285.38;5061375;28;46123;-61
2022/01/22 09:57:26;;;;;;;;;45.25;33.75;;;;;8.95;58.82;103289.03;5061813;28;45320;-61
2022/01/22 09:59:51;;;;;;;;;44.75;36.00;;;;;8.97;58.75;103295.25;5061467;28;45253;-61
2022/01/22 10:02:19;;;;;;;;;38.00;34.50;;;;;8.99;58.71;103288.28;5061444;28;45170;-62
2022/01/22 10:04:48;;;;;;;;;40.00;33.25;;;;;9.00;58.56;103290.06;5061338;28;46445;-61
2022/01/22 10:07:21;;;;;;;;;36.50;29.25;;;;;9.03;58.70;103291.91;5061503;28;45247;-61
2022/01/22 10:10:01;;;;;;;;;37.50;34.00;;;;;9.02;58.57;103296.28;5060968;28;45380;-61
2022/01/22 10:12:29;;;;;;;;;39.25;33.25;;;;;9.02;58.71;103293.66;5061478;28;45435;-61
2022/01/22 10:15:21;;;;;;;;;32.75;30.75;;;;;9.03;58.41;103294.53;5059541;28;47345;-61
2022/01/22 10:17:48;;;;;;;;;45.25;36.25;;;;;9.06;58.68;103294.66;5058140;28;45174;-61
2022/01/22 10:20:32;;;;;;;;;44.75;33.50;;;;;9.04;58.48;103299.84;5061337;28;45331;-61
2022/01/22 10:23:01;;;;;;;;;39.75;33.25;;;;;9.06;58.47;103300.78;5061065;28;45244;-60
2022/01/22 10:25:32;;;;;;;;;34.50;31.75;;;;;9.07;58.67;103302.56;5060925;28;46908;-61
2022/01/22 10:28:00;;;;;;;;;38.00;34.00;;;;;9.05;58.46;103298.09;5060868;28;45228;-61
2022/01/22 10:30:37;;;;;;;;;38.75;34.25;;;;;9.06;58.63;103302.53;5060946;28;45323;-61
2022/01/22 10:33:36;;;;;;;;;42.75;36.75;;;;;9.11;58.42;103307.06;5060114;28;45327;-61
2022/01/22 10:36:19;;;;;;;;;41.50;32.50;;;;;9.15;58.52;103312.44;5059087;28;47039;-60
2022/01/22 10:38:48;;;;;;;;;36.25;33.00;;;;;9.14;58.74;103315.88;5060880;28;45428;-60
2022/01/22 10:41:16;;;;;;;;;38.75;31.75;;;;;9.16;58.77;103324.72;5076414;28;45336;-60
2022/01/22 10:43:54;;;;;;;;;35.50;30.25;;;;;9.17;58.59;103311.63;5060796;28;45433;-60
2022/01/22 10:46:33;;;;;;;;;45.00;32.50;;;;;9.17;58.66;103316.88;5060382;28;45317;-61
2022/01/22 10:49:04;;;;;;;;;35.50;29.50;;;;;9.20;58.78;103310.84;5048473;28;45326;-60
2022/01/22 10:51:31;;;;;;;;;34.75;29.00;;;;;9.21;58.73;103310.88;5060562;28;45246;-60
2022/01/22 10:54:00;;;;;;;;;43.00;33.00;;;;;9.21;58.55;103305.63;5060242;28;45453;-61
2022/01/22 10:56:27;;;;;;;;;36.75;33.00;;;;;9.22;58.55;103296.94;5060494;28;46305;-62
2022/01/22 10:58:55;;;;;;;;;30.25;25.50;;;;;9.25;58.50;103289.13;5060477;28;45291;-62
2022/01/22 11:01:23;;;;;;;;;39.00;33.50;;;;;9.27;58.60;103294.47;5060121;28;45245;-62
2022/01/22 11:04:02;;;;;;;;;33.25;31.00;;;;;9.29;58.45;103292.75;5060390;28;45406;-62
2022/01/22 11:06:28;;;;;;;;;32.00;26.00;;;;;9.32;58.62;103299.84;5060296;28;45331;-62
2022/01/22 11:08:54;;;;;;;;;28.75;21.25;;;;;9.30;58.44;103291.03;5060168;28;45332;-62
2022/01/22 11:11:21;;;;;;;;;38.75;34.75;;;;;9.35;58.37;103290.34;5060309;28;45230;-60
2022/01/22 11:13:46;;;;;;;;;35.25;31.25;;;;;9.38;58.40;103292.16;5060599;28;45276;-60
2022/01/22 11:16:13;;;;;;;;;39.25;32.00;;;;;9.39;58.50;103292.19;5059981;28;45941;-60
2022/01/22 11:18:43;;;;;;;;;33.75;28.00;;;;;9.39;58.36;103289.56;5060397;28;45345;-61
2022/01/22 11:21:08;;;;;;;;;35.00;32.25;;;;;9.41;58.58;103287.91;5060036;28;45353;-61
2022/01/22 11:23:35;;;;;;;;;37.75;31.25;;;;;9.42;58.62;103289.69;5060362;28;45268;-61
2022/01/22 11:26:02;;;;;;;;;38.75;30.50;;;;;9.46;58.59;103292.41;5059977;28;45185;-61
2022/01/22 11:28:28;;;;;;;;;34.50;30.00;;;;;9.47;58.64;103284.59;5060294;28;45178;-60
2022/01/22 11:30:55;;;;;;;;;29.75;29.00;;;;;9.47;58.56;103268.84;5059825;28;45338;-61
2022/01/22 11:33:24;;;;;;;;;32.00;29.75;;;;;9.52;58.58;103277.75;5060199;28;45470;-60
2022/01/22 11:35:56;;;;;;;;;36.00;30.25;;;;;9.54;58.21;103283.91;5059839;28;46295;-61
2022/01/22 11:38:37;;;;;;;;;35.50;31.25;;;;;9.54;58.49;103281.28;5059996;28;45464;-61
2022/01/22 11:41:14;;;;;;;;;37.75;33.50;;;;;9.56;58.38;103281.38;5075578;28;45536;-61
2022/01/22 11:44:09;;;;;;;;;38.50;32.50;;;;;9.57;58.04;103275.25;5058336;28;45481;-60
2022/01/22 11:46:45;;;;;;;;;34.75;29.25;;;;;9.58;58.27;103279.66;5059514;28;45264;-61
2022/01/22 11:49:25;;;;;;;;;36.25;31.00;;;;;9.57;58.27;103267.38;5047475;28;45437;-60
2022/01/22 11:52:11;;;;;;;;;30.25;28.00;;;;;9.60;58.36;103276.22;5059908;28;45286;-61
2022/01/22 11:54:52;;;;;;;;;32.25;28.50;;;;;9.61;58.40;103266.63;5074803;28;45318;-61
2022/01/22 11:57:19;;;;;;;;;33.25;30.50;;;;;9.63;58.35;103262.31;5059776;28;45321;-61
2022/01/22 11:59:46;;;;;;;;;38.75;30.50;;;;;9.62;58.27;103257.88;5059585;28;45252;-61
2022/01/22 12:02:16;;;;;;;;;33.75;28.75;;;;;9.65;58.36;103259.72;5075410;28;45305;-61
2022/01/22 12:04:41;;;;;;;;;38.75;34.25;;;;;9.64;58.25;103264.09;5075230;28;46012;-61
2022/01/22 12:07:07;;;;;;;;;40.00;33.00;;;;;9.65;58.37;103264.97;5059999;28;46415;-61
2022/01/22 12:10:17;;;;;;;;;33.50;32.50;;;;;9.68;58.23;103262.44;5059117;28;45334;-61
2022/01/22 12:15:22;;;;;;;;;36.50;32.00;;;;;9.70;58.19;103253.78;5059262;28;45228;-61
2022/01/22 12:17:49;;;;;;;;;36.00;31.75;;;;;9.72;58.25;103248.56;5059553;28;45493;-61
2022/01/22 12:21:30;;;;;;;;;24.50;23.25;;;;;9.74;58.28;103254.75;5058118;28;45530;-60
2022/01/22 12:23:19;;;;;;;;;44.50;33.75;;;;;9.75;58.42;103246.03;5059426;28;45404;-61
2022/01/22 12:25:44;;;;;;;;;35.75;27.25;;;;;9.75;58.20;103240.78;5059232;28;45182;-61
2022/01/22 12:28:31;;;;;;;;;40.50;32.75;;;;;9.76;58.25;103246.06;5059450;28;45994;-61
2022/01/22 12:31:05;;;;;;;;;38.50;31.00;;;;;9.76;58.39;103239.94;5059010;28;45229;-61
2022/01/22 12:33:44;;;;;;;;;32.50;31.00;;;;;9.81;58.06;103240.06;5059401;28;45321;-61
2022/01/22 12:36:21;;;;;;;;;40.50;32.50;;;;;9.83;58.24;103235.75;5059013;28;45525;-61
2022/01/22 12:39:06;;;;;;;;;39.00;33.25;;;;;9.84;58.30;103229.66;5057656;28;47098;-61
2022/01/22 12:44:07;;;;;;;;;34.25;30.00;;;;;9.88;58.39;103232.41;5059197;28;45359;-61
2022/01/22 12:46:34;;;;;;;;;30.50;29.00;;;;;9.90;58.20;103221.97;5056909;28;45314;-61
2022/01/22 12:49:04;;;;;;;;;33.25;28.50;;;;;9.91;58.02;103224.63;5046793;28;45551;-61
2022/01/22 12:51:30;;;;;;;;;35.50;33.50;;;;;9.89;58.16;103210.53;5058887;28;45354;-61
2022/01/22 12:53:56;;;;;;;;;37.50;33.25;;;;;9.93;57.85;103206.25;5058890;28;45517;-61
2022/01/22 12:59:06;;;;;;;;;39.00;32.75;;;;;9.99;58.06;103210.81;5062452;28;45385;-60
2022/01/22 13:01:34;;;;;;;;;38.00;32.25;;;;;10.00;58.05;103210.84;5062028;28;45278;-60
2022/01/22 13:04:06;;;;;;;;;37.00;32.25;;;;;9.99;58.11;103206.44;5062709;28;45335;-60